sensor_id;sensor_type;location;lat;lon;timestamp;P1;durP1;ratioP1;P2;durP2;ratioP2
23181;SDS011;11759;51.282;6.642;2023-09-18T00:00:18;17.23;;;8.98;;
23181;SDS011;11759;51.282;6.642;2023-09-18T00:02:47;13.93;;;8.68;;
23181;SDS011;11759;51.282;6.642;2023-09-18T00:05:14;14.93;;;8.63;;
23181;SDS011;11759;51.282;6.642;2023-09-18T00:07:42;17.98;;;8.82;;
23181;SDS011;11759;51.282;6.642;2023-09-18T00:10:10;14.60;;;8.88;;
23181;SDS011;11759;51.282;6.642;2023-09-18T00:12:37;13.38;;;8.27;;
23181;SDS011;11759;51.282;6.642;2023-09-18T00:15:05;14.13;;;8.50;;
23181;SDS011;11759;51.282;6.642;2023-09-18T00:17:35;14.00;;;8.43;;
23181;SDS011;11759;51.282;6.642;2023-09-18T00:20:02;13.30;;;8.48;;
23181;SDS011;11759;51.282;6.642;2023-09-18T00:22:33;15.63;;;9.45;;
23181;SDS011;11759;51.282;6.642;2023-09-18T00:25:00;14.82;;;8.45;;
23181;SDS011;11759;51.282;6.642;2023-09-18T00:27:28;16.90;;;9.45;;
23181;SDS011;11759;51.282;6.642;2023-09-18T00:29:55;18.83;;;10.40;;
23181;SDS011;11759;51.282;6.642;2023-09-18T00:32:22;12.80;;;9.10;;
23181;SDS011;11759;51.282;6.642;2023-09-18T00:34:49;22.98;;;10.13;;
23181;SDS011;11759;51.282;6.642;2023-09-18T00:37:15;19.38;;;11.45;;
23181;SDS011;11759;51.282;6.642;2023-09-18T00:39:43;15.75;;;10.50;;
23181;SDS011;11759;51.282;6.642;2023-09-18T00:42:10;20.42;;;10.02;;
23181;SDS011;11759;51.282;6.642;2023-09-18T00:44:40;19.35;;;10.18;;
23181;SDS011;11759;51.282;6.642;2023-09-18T00:47:09;14.65;;;9.20;;
23181;SDS011;11759;51.282;6.642;2023-09-18T00:49:36;17.13;;;10.50;;
23181;SDS011;11759;51.282;6.642;2023-09-18T00:52:05;17.73;;;10.20;;
23181;SDS011;11759;51.282;6.642;2023-09-18T00:54:34;15.45;;;10.10;;
23181;SDS011;11759;51.282;6.642;2023-09-18T00:57:02;18.85;;;10.68;;
23181;SDS011;11759;51.282;6.642;2023-09-18T00:59:29;19.35;;;10.82;;
23181;SDS011;11759;51.282;6.642;2023-09-18T01:01:57;18.85;;;11.32;;
23181;SDS011;11759;51.282;6.642;2023-09-18T01:04:24;18.75;;;10.50;;
23181;SDS011;11759;51.282;6.642;2023-09-18T01:06:52;19.13;;;10.63;;
23181;SDS011;11759;51.282;6.642;2023-09-18T01:09:20;19.55;;;11.00;;
23181;SDS011;11759;51.282;6.642;2023-09-18T01:11:49;18.88;;;11.25;;
23181;SDS011;11759;51.282;6.642;2023-09-18T01:17:14;23.85;;;10.90;;
23181;SDS011;11759;51.282;6.642;2023-09-18T01:19:46;17.30;;;9.65;;
23181;SDS011;11759;51.282;6.642;2023-09-18T01:22:14;17.52;;;10.18;;
23181;SDS011;11759;51.282;6.642;2023-09-18T01:24:43;21.08;;;10.02;;
23181;SDS011;11759;51.282;6.642;2023-09-18T01:27:11;18.27;;;11.02;;
23181;SDS011;11759;51.282;6.642;2023-09-18T01:29:43;17.60;;;9.43;;
23181;SDS011;11759;51.282;6.642;2023-09-18T01:32:10;16.73;;;9.98;;
23181;SDS011;11759;51.282;6.642;2023-09-18T01:34:38;13.57;;;8.85;;
23181;SDS011;11759;51.282;6.642;2023-09-18T01:37:09;19.52;;;10.23;;
23181;SDS011;11759;51.282;6.642;2023-09-18T01:39:36;16.92;;;9.45;;
23181;SDS011;11759;51.282;6.642;2023-09-18T01:42:05;18.38;;;10.00;;
23181;SDS011;11759;51.282;6.642;2023-09-18T01:44:33;15.20;;;9.50;;
23181;SDS011;11759;51.282;6.642;2023-09-18T01:47:03;19.17;;;10.20;;
23181;SDS011;11759;51.282;6.642;2023-09-18T01:49:34;17.70;;;9.65;;
23181;SDS011;11759;51.282;6.642;2023-09-18T01:52:02;22.30;;;10.32;;
23181;SDS011;11759;51.282;6.642;2023-09-18T01:54:30;21.85;;;10.65;;
23181;SDS011;11759;51.282;6.642;2023-09-18T01:56:57;15.40;;;10.05;;
23181;SDS011;11759;51.282;6.642;2023-09-18T01:59:24;19.30;;;10.90;;
23181;SDS011;11759;51.282;6.642;2023-09-18T02:01:52;20.45;;;10.45;;
23181;SDS011;11759;51.282;6.642;2023-09-18T02:04:21;24.95;;;11.15;;
23181;SDS011;11759;51.282;6.642;2023-09-18T02:07:08;17.25;;;11.05;;
23181;SDS011;11759;51.282;6.642;2023-09-18T02:09:36;18.02;;;10.77;;
23181;SDS011;11759;51.282;6.642;2023-09-18T02:12:02;20.73;;;10.13;;
23181;SDS011;11759;51.282;6.642;2023-09-18T02:14:30;26.40;;;10.77;;
23181;SDS011;11759;51.282;6.642;2023-09-18T02:16:57;19.83;;;10.63;;
23181;SDS011;11759;51.282;6.642;2023-09-18T02:19:24;17.23;;;10.18;;
23181;SDS011;11759;51.282;6.642;2023-09-18T02:21:52;23.02;;;10.60;;
23181;SDS011;11759;51.282;6.642;2023-09-18T02:24:19;16.90;;;9.40;;
23181;SDS011;11759;51.282;6.642;2023-09-18T02:26:45;23.02;;;9.95;;
23181;SDS011;11759;51.282;6.642;2023-09-18T02:29:12;18.95;;;10.23;;
23181;SDS011;11759;51.282;6.642;2023-09-18T02:31:41;14.35;;;9.73;;
23181;SDS011;11759;51.282;6.642;2023-09-18T02:37:58;18.92;;;10.38;;
23181;SDS011;11759;51.282;6.642;2023-09-18T02:40:27;15.07;;;9.65;;
23181;SDS011;11759;51.282;6.642;2023-09-18T02:42:53;15.38;;;9.52;;
23181;SDS011;11759;51.282;6.642;2023-09-18T02:45:20;20.52;;;10.80;;
23181;SDS011;11759;51.282;6.642;2023-09-18T02:47:47;19.65;;;9.52;;
23181;SDS011;11759;51.282;6.642;2023-09-18T02:50:14;19.00;;;9.45;;
23181;SDS011;11759;51.282;6.642;2023-09-18T02:52:40;18.65;;;9.07;;
23181;SDS011;11759;51.282;6.642;2023-09-18T02:55:07;22.48;;;9.75;;
23181;SDS011;11759;51.282;6.642;2023-09-18T02:57:36;18.67;;;9.50;;
23181;SDS011;11759;51.282;6.642;2023-09-18T03:00:02;22.67;;;9.30;;
23181;SDS011;11759;51.282;6.642;2023-09-18T03:02:30;20.85;;;10.65;;
23181;SDS011;11759;51.282;6.642;2023-09-18T03:04:57;18.58;;;8.75;;
23181;SDS011;11759;51.282;6.642;2023-09-18T03:07:24;14.05;;;8.35;;
23181;SDS011;11759;51.282;6.642;2023-09-18T03:09:50;20.40;;;8.85;;
23181;SDS011;11759;51.282;6.642;2023-09-18T03:12:18;16.42;;;8.68;;
23181;SDS011;11759;51.282;6.642;2023-09-18T03:14:45;18.10;;;7.88;;
23181;SDS011;11759;51.282;6.642;2023-09-18T03:17:13;15.68;;;7.78;;
23181;SDS011;11759;51.282;6.642;2023-09-18T03:19:39;17.52;;;7.65;;
23181;SDS011;11759;51.282;6.642;2023-09-18T03:22:10;16.42;;;7.57;;
23181;SDS011;11759;51.282;6.642;2023-09-18T03:24:36;17.92;;;8.02;;
23181;SDS011;11759;51.282;6.642;2023-09-18T03:27:03;20.35;;;8.45;;
23181;SDS011;11759;51.282;6.642;2023-09-18T03:29:30;21.55;;;8.50;;
23181;SDS011;11759;51.282;6.642;2023-09-18T03:31:58;16.90;;;7.32;;
23181;SDS011;11759;51.282;6.642;2023-09-18T03:34:25;20.25;;;8.15;;
23181;SDS011;11759;51.282;6.642;2023-09-18T03:36:55;16.95;;;7.60;;
23181;SDS011;11759;51.282;6.642;2023-09-18T03:39:22;16.92;;;7.32;;
23181;SDS011;11759;51.282;6.642;2023-09-18T03:41:48;14.35;;;7.28;;
23181;SDS011;11759;51.282;6.642;2023-09-18T03:44:15;11.95;;;6.93;;
23181;SDS011;11759;51.282;6.642;2023-09-18T03:46:42;15.60;;;7.13;;
23181;SDS011;11759;51.282;6.642;2023-09-18T03:49:09;18.48;;;7.25;;
23181;SDS011;11759;51.282;6.642;2023-09-18T03:51:37;12.35;;;6.68;;
23181;SDS011;11759;51.282;6.642;2023-09-18T03:54:04;10.02;;;6.35;;
23181;SDS011;11759;51.282;6.642;2023-09-18T03:56:30;12.93;;;6.80;;
23181;SDS011;11759;51.282;6.642;2023-09-18T03:58:57;14.20;;;6.40;;
23181;SDS011;11759;51.282;6.642;2023-09-18T04:01:27;11.95;;;6.40;;
23181;SDS011;11759;51.282;6.642;2023-09-18T04:03:54;33.90;;;7.15;;
23181;SDS011;11759;51.282;6.642;2023-09-18T04:06:21;17.60;;;7.55;;
23181;SDS011;11759;51.282;6.642;2023-09-18T04:08:50;16.27;;;7.72;;
23181;SDS011;11759;51.282;6.642;2023-09-18T04:11:18;17.13;;;7.55;;
23181;SDS011;11759;51.282;6.642;2023-09-18T04:13:51;16.90;;;7.60;;
23181;SDS011;11759;51.282;6.642;2023-09-18T04:16:18;16.25;;;6.60;;
23181;SDS011;11759;51.282;6.642;2023-09-18T04:18:45;16.15;;;7.45;;
23181;SDS011;11759;51.282;6.642;2023-09-18T04:21:11;17.38;;;7.32;;
23181;SDS011;11759;51.282;6.642;2023-09-18T04:23:38;19.30;;;6.55;;
23181;SDS011;11759;51.282;6.642;2023-09-18T04:26:06;11.77;;;5.57;;
23181;SDS011;11759;51.282;6.642;2023-09-18T04:28:32;13.32;;;6.53;;
23181;SDS011;11759;51.282;6.642;2023-09-18T04:30:59;12.07;;;5.78;;
23181;SDS011;11759;51.282;6.642;2023-09-18T04:33:26;14.57;;;5.75;;
23181;SDS011;11759;51.282;6.642;2023-09-18T04:35:56;12.50;;;5.72;;
23181;SDS011;11759;51.282;6.642;2023-09-18T04:38:23;10.43;;;5.88;;
23181;SDS011;11759;51.282;6.642;2023-09-18T04:40:56;12.68;;;6.13;;
23181;SDS011;11759;51.282;6.642;2023-09-18T04:43:24;14.73;;;6.60;;
23181;SDS011;11759;51.282;6.642;2023-09-18T04:45:51;16.52;;;5.95;;
23181;SDS011;11759;51.282;6.642;2023-09-18T04:48:17;14.18;;;5.82;;
23181;SDS011;11759;51.282;6.642;2023-09-18T04:50:44;15.57;;;5.70;;
23181;SDS011;11759;51.282;6.642;2023-09-18T04:53:12;15.13;;;6.10;;
23181;SDS011;11759;51.282;6.642;2023-09-18T04:55:39;13.63;;;5.35;;
23181;SDS011;11759;51.282;6.642;2023-09-18T04:58:06;17.77;;;5.93;;
23181;SDS011;11759;51.282;6.642;2023-09-18T05:00:33;12.77;;;5.95;;
23181;SDS011;11759;51.282;6.642;2023-09-18T05:03:00;12.15;;;5.63;;
23181;SDS011;11759;51.282;6.642;2023-09-18T05:05:28;12.93;;;5.63;;
23181;SDS011;11759;51.282;6.642;2023-09-18T05:07:56;12.68;;;5.70;;
23181;SDS011;11759;51.282;6.642;2023-09-18T05:10:22;13.65;;;4.95;;
23181;SDS011;11759;51.282;6.642;2023-09-18T05:12:49;14.90;;;5.47;;
23181;SDS011;11759;51.282;6.642;2023-09-18T05:15:16;15.60;;;5.28;;
23181;SDS011;11759;51.282;6.642;2023-09-18T05:17:45;11.82;;;5.28;;
23181;SDS011;11759;51.282;6.642;2023-09-18T05:20:16;11.18;;;5.20;;
23181;SDS011;11759;51.282;6.642;2023-09-18T05:22:44;20.23;;;5.35;;
23181;SDS011;11759;51.282;6.642;2023-09-18T05:25:12;15.40;;;6.00;;
23181;SDS011;11759;51.282;6.642;2023-09-18T05:27:40;13.98;;;5.85;;
23181;SDS011;11759;51.282;6.642;2023-09-18T05:30:14;15.82;;;7.20;;
23181;SDS011;11759;51.282;6.642;2023-09-18T05:32:42;24.88;;;7.05;;
23181;SDS011;11759;51.282;6.642;2023-09-18T05:35:10;12.68;;;6.65;;
23181;SDS011;11759;51.282;6.642;2023-09-18T05:37:39;17.63;;;6.85;;
23181;SDS011;11759;51.282;6.642;2023-09-18T05:40:07;18.70;;;6.72;;
23181;SDS011;11759;51.282;6.642;2023-09-18T05:42:39;14.63;;;7.22;;
23181;SDS011;11759;51.282;6.642;2023-09-18T05:45:10;18.95;;;5.88;;
23181;SDS011;11759;51.282;6.642;2023-09-18T05:50:10;12.82;;;5.75;;
23181;SDS011;11759;51.282;6.642;2023-09-18T05:52:41;16.98;;;6.30;;
23181;SDS011;11759;51.282;6.642;2023-09-18T05:55:09;13.45;;;5.90;;
23181;SDS011;11759;51.282;6.642;2023-09-18T05:57:36;13.32;;;6.10;;
23181;SDS011;11759;51.282;6.642;2023-09-18T06:00:04;13.20;;;5.32;;
23181;SDS011;11759;51.282;6.642;2023-09-18T06:02:40;14.23;;;5.13;;
23181;SDS011;11759;51.282;6.642;2023-09-18T06:05:07;11.63;;;5.13;;
23181;SDS011;11759;51.282;6.642;2023-09-18T06:07:37;11.05;;;5.10;;
23181;SDS011;11759;51.282;6.642;2023-09-18T06:10:04;17.92;;;5.15;;
23181;SDS011;11759;51.282;6.642;2023-09-18T06:12:31;13.68;;;4.93;;
23181;SDS011;11759;51.282;6.642;2023-09-18T06:14:58;11.48;;;4.55;;
23181;SDS011;11759;51.282;6.642;2023-09-18T06:17:25;11.20;;;4.60;;
23181;SDS011;11759;51.282;6.642;2023-09-18T06:19:52;12.40;;;4.53;;
23181;SDS011;11759;51.282;6.642;2023-09-18T06:22:18;14.40;;;5.18;;
23181;SDS011;11759;51.282;6.642;2023-09-18T06:24:45;7.68;;;4.05;;
23181;SDS011;11759;51.282;6.642;2023-09-18T06:27:12;9.23;;;4.20;;
23181;SDS011;11759;51.282;6.642;2023-09-18T06:29:38;13.38;;;4.35;;
23181;SDS011;11759;51.282;6.642;2023-09-18T06:32:05;11.20;;;3.33;;
23181;SDS011;11759;51.282;6.642;2023-09-18T06:34:32;11.00;;;4.03;;
23181;SDS011;11759;51.282;6.642;2023-09-18T06:36:59;12.98;;;3.90;;
23181;SDS011;11759;51.282;6.642;2023-09-18T06:39:26;9.32;;;3.67;;
23181;SDS011;11759;51.282;6.642;2023-09-18T06:41:52;13.00;;;4.10;;
23181;SDS011;11759;51.282;6.642;2023-09-18T06:44:19;11.77;;;3.33;;
23181;SDS011;11759;51.282;6.642;2023-09-18T06:46:46;13.25;;;3.58;;
23181;SDS011;11759;51.282;6.642;2023-09-18T06:49:12;9.07;;;3.60;;
23181;SDS011;11759;51.282;6.642;2023-09-18T06:51:39;11.77;;;4.05;;
23181;SDS011;11759;51.282;6.642;2023-09-18T06:54:09;13.38;;;3.58;;
23181;SDS011;11759;51.282;6.642;2023-09-18T06:56:36;9.02;;;3.28;;
23181;SDS011;11759;51.282;6.642;2023-09-18T06:59:03;18.40;;;3.47;;
23181;SDS011;11759;51.282;6.642;2023-09-18T07:01:29;6.32;;;2.80;;
23181;SDS011;11759;51.282;6.642;2023-09-18T07:03:58;9.00;;;3.20;;
23181;SDS011;11759;51.282;6.642;2023-09-18T07:06:26;9.50;;;2.67;;
23181;SDS011;11759;51.282;6.642;2023-09-18T07:08:53;11.55;;;2.80;;
23181;SDS011;11759;51.282;6.642;2023-09-18T07:11:20;7.80;;;2.78;;
23181;SDS011;11759;51.282;6.642;2023-09-18T07:13:50;10.05;;;2.88;;
23181;SDS011;11759;51.282;6.642;2023-09-18T07:16:16;6.60;;;2.58;;
23181;SDS011;11759;51.282;6.642;2023-09-18T07:18:43;7.25;;;2.08;;
23181;SDS011;11759;51.282;6.642;2023-09-18T07:21:10;6.10;;;2.30;;
23181;SDS011;11759;51.282;6.642;2023-09-18T07:23:36;8.93;;;2.30;;
23181;SDS011;11759;51.282;6.642;2023-09-18T07:26:03;8.20;;;2.33;;
23181;SDS011;11759;51.282;6.642;2023-09-18T07:28:30;12.93;;;2.33;;
23181;SDS011;11759;51.282;6.642;2023-09-18T07:31:02;10.07;;;2.55;;
23181;SDS011;11759;51.282;6.642;2023-09-18T07:33:31;5.68;;;2.03;;
23181;SDS011;11759;51.282;6.642;2023-09-18T07:35:58;5.80;;;2.20;;
23181;SDS011;11759;51.282;6.642;2023-09-18T07:38:25;6.63;;;2.15;;
23181;SDS011;11759;51.282;6.642;2023-09-18T07:40:52;6.93;;;2.10;;
23181;SDS011;11759;51.282;6.642;2023-09-18T07:43:18;4.50;;;1.77;;
23181;SDS011;11759;51.282;6.642;2023-09-18T07:45:46;6.53;;;2.92;;
23181;SDS011;11759;51.282;6.642;2023-09-18T07:48:13;6.50;;;1.58;;
23181;SDS011;11759;51.282;6.642;2023-09-18T07:50:42;8.27;;;1.80;;
23181;SDS011;11759;51.282;6.642;2023-09-18T07:53:10;3.63;;;1.73;;
23181;SDS011;11759;51.282;6.642;2023-09-18T07:55:37;10.68;;;2.10;;
23181;SDS011;11759;51.282;6.642;2023-09-18T07:58:04;6.75;;;1.63;;
23181;SDS011;11759;51.282;6.642;2023-09-18T08:00:31;2.47;;;1.50;;
23181;SDS011;11759;51.282;6.642;2023-09-18T08:02:59;5.32;;;1.77;;
23181;SDS011;11759;51.282;6.642;2023-09-18T08:05:27;3.78;;;1.55;;
23181;SDS011;11759;51.282;6.642;2023-09-18T08:07:54;6.60;;;2.17;;
23181;SDS011;11759;51.282;6.642;2023-09-18T08:10:25;4.50;;;1.83;;
23181;SDS011;11759;51.282;6.642;2023-09-18T08:12:52;5.93;;;1.80;;
23181;SDS011;11759;51.282;6.642;2023-09-18T08:15:20;6.07;;;2.05;;
23181;SDS011;11759;51.282;6.642;2023-09-18T08:17:47;5.95;;;1.83;;
23181;SDS011;11759;51.282;6.642;2023-09-18T08:20:15;3.20;;;1.50;;
23181;SDS011;11759;51.282;6.642;2023-09-18T08:22:43;8.32;;;1.80;;
23181;SDS011;11759;51.282;6.642;2023-09-18T08:25:10;4.07;;;1.90;;
23181;SDS011;11759;51.282;6.642;2023-09-18T08:27:38;7.35;;;1.90;;
23181;SDS011;11759;51.282;6.642;2023-09-18T08:30:13;3.97;;;1.52;;
23181;SDS011;11759;51.282;6.642;2023-09-18T08:32:41;7.97;;;1.50;;
23181;SDS011;11759;51.282;6.642;2023-09-18T08:35:08;4.55;;;1.50;;
23181;SDS011;11759;51.282;6.642;2023-09-18T08:37:35;9.60;;;1.90;;
23181;SDS011;11759;51.282;6.642;2023-09-18T08:40:02;4.63;;;1.63;;
23181;SDS011;11759;51.282;6.642;2023-09-18T08:42:38;2.70;;;1.42;;
23181;SDS011;11759;51.282;6.642;2023-09-18T08:45:08;5.80;;;1.70;;
23181;SDS011;11759;51.282;6.642;2023-09-18T08:47:37;6.22;;;1.85;;
23181;SDS011;11759;51.282;6.642;2023-09-18T08:50:05;2.85;;;1.80;;
23181;SDS011;11759;51.282;6.642;2023-09-18T08:52:34;4.82;;;1.60;;
23181;SDS011;11759;51.282;6.642;2023-09-18T08:55:02;5.45;;;1.55;;
23181;SDS011;11759;51.282;6.642;2023-09-18T08:57:29;3.28;;;1.27;;
23181;SDS011;11759;51.282;6.642;2023-09-18T08:59:57;2.30;;;1.15;;
23181;SDS011;11759;51.282;6.642;2023-09-18T09:02:25;6.15;;;1.58;;
23181;SDS011;11759;51.282;6.642;2023-09-18T09:04:52;5.28;;;1.80;;
23181;SDS011;11759;51.282;6.642;2023-09-18T09:07:19;4.82;;;1.92;;
23181;SDS011;11759;51.282;6.642;2023-09-18T09:09:46;3.20;;;1.40;;
23181;SDS011;11759;51.282;6.642;2023-09-18T09:12:13;4.00;;;1.42;;
23181;SDS011;11759;51.282;6.642;2023-09-18T09:14:40;8.82;;;1.80;;
23181;SDS011;11759;51.282;6.642;2023-09-18T09:17:07;5.57;;;2.40;;
23181;SDS011;11759;51.282;6.642;2023-09-18T09:19:36;4.88;;;1.55;;
23181;SDS011;11759;51.282;6.642;2023-09-18T09:22:05;3.00;;;1.38;;
23181;SDS011;11759;51.282;6.642;2023-09-18T09:24:42;4.60;;;1.52;;
23181;SDS011;11759;51.282;6.642;2023-09-18T09:27:09;4.13;;;1.58;;
23181;SDS011;11759;51.282;6.642;2023-09-18T09:29:37;4.57;;;1.33;;
23181;SDS011;11759;51.282;6.642;2023-09-18T09:32:14;3.65;;;1.50;;
23181;SDS011;11759;51.282;6.642;2023-09-18T09:34:44;3.83;;;1.50;;
23181;SDS011;11759;51.282;6.642;2023-09-18T09:37:12;6.78;;;1.40;;
23181;SDS011;11759;51.282;6.642;2023-09-18T09:39:46;2.45;;;1.30;;
23181;SDS011;11759;51.282;6.642;2023-09-18T09:42:17;5.00;;;1.45;;
23181;SDS011;11759;51.282;6.642;2023-09-18T09:45:02;2.25;;;1.40;;
23181;SDS011;11759;51.282;6.642;2023-09-18T09:47:34;3.88;;;1.52;;
23181;SDS011;11759;51.282;6.642;2023-09-18T09:50:11;6.50;;;2.03;;
23181;SDS011;11759;51.282;6.642;2023-09-18T09:52:43;5.25;;;1.50;;
23181;SDS011;11759;51.282;6.642;2023-09-18T09:55:30;7.53;;;1.80;;
23181;SDS011;11759;51.282;6.642;2023-09-18T09:57:59;3.80;;;1.40;;
23181;SDS011;11759;51.282;6.642;2023-09-18T10:00:31;4.15;;;1.73;;
23181;SDS011;11759;51.282;6.642;2023-09-18T10:03:04;6.07;;;1.70;;
23181;SDS011;11759;51.282;6.642;2023-09-18T10:05:32;4.45;;;1.42;;
23181;SDS011;11759;51.282;6.642;2023-09-18T10:08:04;5.50;;;1.77;;
23181;SDS011;11759;51.282;6.642;2023-09-18T10:13:15;6.68;;;1.55;;
23181;SDS011;11759;51.282;6.642;2023-09-18T10:15:43;5.97;;;1.70;;
23181;SDS011;11759;51.282;6.642;2023-09-18T10:18:17;5.63;;;1.67;;
23181;SDS011;11759;51.282;6.642;2023-09-18T10:21:03;4.20;;;1.60;;
23181;SDS011;11759;51.282;6.642;2023-09-18T10:23:44;3.50;;;1.58;;
23181;SDS011;11759;51.282;6.642;2023-09-18T10:26:22;3.88;;;1.70;;
23181;SDS011;11759;51.282;6.642;2023-09-18T10:28:56;4.47;;;1.70;;
23181;SDS011;11759;51.282;6.642;2023-09-18T10:31:29;3.13;;;1.55;;
23181;SDS011;11759;51.282;6.642;2023-09-18T10:33:58;2.65;;;1.52;;
23181;SDS011;11759;51.282;6.642;2023-09-18T10:36:25;4.68;;;2.28;;
23181;SDS011;11759;51.282;6.642;2023-09-18T10:38:52;3.00;;;1.58;;
23181;SDS011;11759;51.282;6.642;2023-09-18T10:41:21;5.15;;;1.50;;
23181;SDS011;11759;51.282;6.642;2023-09-18T10:43:51;3.70;;;1.52;;
23181;SDS011;11759;51.282;6.642;2023-09-18T10:46:19;4.57;;;1.83;;
23181;SDS011;11759;51.282;6.642;2023-09-18T10:48:47;6.18;;;1.70;;
23181;SDS011;11759;51.282;6.642;2023-09-18T10:51:14;5.22;;;1.85;;
23181;SDS011;11759;51.282;6.642;2023-09-18T10:53:40;4.07;;;1.70;;
23181;SDS011;11759;51.282;6.642;2023-09-18T10:56:07;3.13;;;1.67;;
23181;SDS011;11759;51.282;6.642;2023-09-18T10:58:34;4.53;;;1.48;;
23181;SDS011;11759;51.282;6.642;2023-09-18T11:01:04;4.05;;;1.80;;
23181;SDS011;11759;51.282;6.642;2023-09-18T11:03:32;4.47;;;1.77;;
23181;SDS011;11759;51.282;6.642;2023-09-18T11:06:04;5.28;;;1.80;;
23181;SDS011;11759;51.282;6.642;2023-09-18T11:08:36;6.22;;;2.05;;
23181;SDS011;11759;51.282;6.642;2023-09-18T11:11:10;4.13;;;1.70;;
23181;SDS011;11759;51.282;6.642;2023-09-18T11:13:41;5.32;;;1.75;;
23181;SDS011;11759;51.282;6.642;2023-09-18T11:21:37;4.43;;;1.73;;
23181;SDS011;11759;51.282;6.642;2023-09-18T11:24:08;3.72;;;1.58;;
23181;SDS011;11759;51.282;6.642;2023-09-18T11:26:48;4.90;;;1.50;;
23181;SDS011;11759;51.282;6.642;2023-09-18T11:31:46;4.63;;;1.70;;
23181;SDS011;11759;51.282;6.642;2023-09-18T11:34:21;4.50;;;1.58;;
23181;SDS011;11759;51.282;6.642;2023-09-18T11:36:53;6.32;;;1.80;;
23181;SDS011;11759;51.282;6.642;2023-09-18T11:39:32;6.25;;;1.80;;
23181;SDS011;11759;51.282;6.642;2023-09-18T11:42:09;4.70;;;1.80;;
23181;SDS011;11759;51.282;6.642;2023-09-18T11:44:40;4.47;;;1.80;;
23181;SDS011;11759;51.282;6.642;2023-09-18T11:47:15;4.47;;;1.63;;
23181;SDS011;11759;51.282;6.642;2023-09-18T11:49:47;4.15;;;1.80;;
23181;SDS011;11759;51.282;6.642;2023-09-18T11:52:27;4.25;;;1.73;;
23181;SDS011;11759;51.282;6.642;2023-09-18T11:54:56;3.17;;;1.70;;
23181;SDS011;11759;51.282;6.642;2023-09-18T11:57:24;4.28;;;1.90;;
23181;SDS011;11759;51.282;6.642;2023-09-18T11:59:51;5.68;;;2.20;;
23181;SDS011;11759;51.282;6.642;2023-09-18T12:02:28;3.60;;;1.60;;
23181;SDS011;11759;51.282;6.642;2023-09-18T12:05:15;3.42;;;1.55;;
23181;SDS011;11759;51.282;6.642;2023-09-18T12:10:12;5.43;;;1.75;;
23181;SDS011;11759;51.282;6.642;2023-09-18T12:12:43;3.97;;;1.70;;
23181;SDS011;11759;51.282;6.642;2023-09-18T12:15:11;4.85;;;1.83;;
23181;SDS011;11759;51.282;6.642;2023-09-18T12:17:38;3.25;;;1.95;;
23181;SDS011;11759;51.282;6.642;2023-09-18T12:20:05;6.38;;;1.50;;
23181;SDS011;11759;51.282;6.642;2023-09-18T12:22:32;4.05;;;1.73;;
23181;SDS011;11759;51.282;6.642;2023-09-18T12:25:14;3.78;;;1.60;;
23181;SDS011;11759;51.282;6.642;2023-09-18T12:27:42;2.50;;;1.70;;
23181;SDS011;11759;51.282;6.642;2023-09-18T12:30:10;4.88;;;1.60;;
23181;SDS011;11759;51.282;6.642;2023-09-18T12:32:38;2.08;;;1.55;;
23181;SDS011;11759;51.282;6.642;2023-09-18T12:35:06;2.97;;;1.60;;
23181;SDS011;11759;51.282;6.642;2023-09-18T12:37:40;3.03;;;1.50;;
23181;SDS011;11759;51.282;6.642;2023-09-18T12:40:20;2.92;;;1.58;;
23181;SDS011;11759;51.282;6.642;2023-09-18T12:42:47;3.08;;;1.60;;
23181;SDS011;11759;51.282;6.642;2023-09-18T12:45:15;6.82;;;1.67;;
23181;SDS011;11759;51.282;6.642;2023-09-18T12:47:42;9.32;;;1.60;;
23181;SDS011;11759;51.282;6.642;2023-09-18T12:50:12;2.58;;;1.60;;
23181;SDS011;11759;51.282;6.642;2023-09-18T12:52:40;4.35;;;1.55;;
23181;SDS011;11759;51.282;6.642;2023-09-18T12:55:07;2.15;;;1.23;;
23181;SDS011;11759;51.282;6.642;2023-09-18T12:57:34;3.88;;;1.70;;
23181;SDS011;11759;51.282;6.642;2023-09-18T13:00:08;2.47;;;1.58;;
23181;SDS011;11759;51.282;6.642;2023-09-18T13:02:37;3.80;;;1.35;;
23181;SDS011;11759;51.282;6.642;2023-09-18T13:05:05;5.80;;;1.50;;
23181;SDS011;11759;51.282;6.642;2023-09-18T13:07:32;5.03;;;1.55;;
23181;SDS011;11759;51.282;6.642;2023-09-18T13:10:09;4.80;;;1.48;;
23181;SDS011;11759;51.282;6.642;2023-09-18T13:12:43;4.72;;;1.33;;
23181;SDS011;11759;51.282;6.642;2023-09-18T13:15:12;4.32;;;1.35;;
23181;SDS011;11759;51.282;6.642;2023-09-18T13:17:43;2.67;;;1.48;;
23181;SDS011;11759;51.282;6.642;2023-09-18T13:20:12;5.03;;;1.55;;
23181;SDS011;11759;51.282;6.642;2023-09-18T13:22:41;2.13;;;1.40;;
23181;SDS011;11759;51.282;6.642;2023-09-18T13:25:09;2.80;;;1.45;;
23181;SDS011;11759;51.282;6.642;2023-09-18T13:27:37;3.40;;;1.80;;
23181;SDS011;11759;51.282;6.642;2023-09-18T13:30:05;2.97;;;1.52;;
23181;SDS011;11759;51.282;6.642;2023-09-18T13:32:34;2.80;;;1.63;;
23181;SDS011;11759;51.282;6.642;2023-09-18T13:35:06;5.20;;;1.67;;
23181;SDS011;11759;51.282;6.642;2023-09-18T13:37:33;3.67;;;2.10;;
23181;SDS011;11759;51.282;6.642;2023-09-18T13:40:00;6.30;;;1.30;;
23181;SDS011;11759;51.282;6.642;2023-09-18T13:42:28;2.90;;;1.55;;
23181;SDS011;11759;51.282;6.642;2023-09-18T13:44:58;3.13;;;1.53;;
23181;SDS011;11759;51.282;6.642;2023-09-18T13:47:27;4.40;;;1.70;;
23181;SDS011;11759;51.282;6.642;2023-09-18T13:49:55;5.13;;;1.70;;
23181;SDS011;11759;51.282;6.642;2023-09-18T13:52:23;2.72;;;1.60;;
23181;SDS011;11759;51.282;6.642;2023-09-18T13:54:50;5.40;;;2.20;;
23181;SDS011;11759;51.282;6.642;2023-09-18T13:57:18;3.53;;;1.70;;
23181;SDS011;11759;51.282;6.642;2023-09-18T13:59:45;5.60;;;1.60;;
23181;SDS011;11759;51.282;6.642;2023-09-18T14:02:13;4.85;;;1.77;;
23181;SDS011;11759;51.282;6.642;2023-09-18T14:04:39;4.15;;;1.65;;
23181;SDS011;11759;51.282;6.642;2023-09-18T14:07:06;4.85;;;1.70;;
23181;SDS011;11759;51.282;6.642;2023-09-18T14:09:37;5.13;;;1.70;;
23181;SDS011;11759;51.282;6.642;2023-09-18T14:12:04;3.03;;;1.67;;
23181;SDS011;11759;51.282;6.642;2023-09-18T14:14:35;8.48;;;1.77;;
23181;SDS011;11759;51.282;6.642;2023-09-18T14:17:02;3.85;;;1.40;;
23181;SDS011;11759;51.282;6.642;2023-09-18T14:19:32;3.80;;;1.60;;
23181;SDS011;11759;51.282;6.642;2023-09-18T14:21:58;7.65;;;1.65;;
23181;SDS011;11759;51.282;6.642;2023-09-18T14:26:57;3.03;;;1.67;;
23181;SDS011;11759;51.282;6.642;2023-09-18T14:29:23;6.80;;;1.80;;
23181;SDS011;11759;51.282;6.642;2023-09-18T14:31:50;3.17;;;1.60;;
23181;SDS011;11759;51.282;6.642;2023-09-18T14:34:17;4.25;;;1.50;;
23181;SDS011;11759;51.282;6.642;2023-09-18T14:36:43;4.78;;;1.83;;
23181;SDS011;11759;51.282;6.642;2023-09-18T14:41:41;2.50;;;1.38;;
23181;SDS011;11759;51.282;6.642;2023-09-18T14:44:08;3.95;;;1.77;;
23181;SDS011;11759;51.282;6.642;2023-09-18T14:46:36;2.05;;;1.50;;
23181;SDS011;11759;51.282;6.642;2023-09-18T14:49:04;5.90;;;2.00;;
23181;SDS011;11759;51.282;6.642;2023-09-18T14:51:31;5.20;;;1.77;;
23181;SDS011;11759;51.282;6.642;2023-09-18T14:53:58;10.48;;;2.20;;
23181;SDS011;11759;51.282;6.642;2023-09-18T14:56:26;3.28;;;1.70;;
23181;SDS011;11759;51.282;6.642;2023-09-18T14:58:54;3.60;;;1.73;;
23181;SDS011;11759;51.282;6.642;2023-09-18T15:01:21;4.50;;;1.50;;
23181;SDS011;11759;51.282;6.642;2023-09-18T15:03:48;3.70;;;1.60;;
23181;SDS011;11759;51.282;6.642;2023-09-18T15:06:16;5.15;;;1.70;;
23181;SDS011;11759;51.282;6.642;2023-09-18T15:08:43;4.47;;;1.65;;
23181;SDS011;11759;51.282;6.642;2023-09-18T15:11:10;4.88;;;1.50;;
23181;SDS011;11759;51.282;6.642;2023-09-18T15:13:37;3.08;;;1.58;;
23181;SDS011;11759;51.282;6.642;2023-09-18T15:16:05;5.50;;;1.48;;